Terminal Aerodrome Forecast
Issued by NWS

Home | Current Version | Previous Version | Text Only | Print | Product List | Glossary Off
Versions: 1 2 3 4 5 6 7 8 9 10 11 12 13 14 15 16 17

000
FTUS45 KRIW 271700
TAFCPR
TAF
KCPR 271738Z 2718/2818 03007KT P6SM VCSH OVC015
     FM272200 05007KT P6SM SCT025 BKN035
     FM280300 05008KT P6SM VCFG SCT005 BKN015
     FM281500 23007KT P6SM SKC=

USA.gov is the U.S. government's official web portal to all federal, state and local government web resources and services.